Time;durP1;ratioP1;P1;durP2;ratioP2;P2;SDS_P1;SDS_P2;PMS_P1;PMS_P2;Temp;Humidity;BMP_temperature;BMP_pressure;BME280_temperature;BME280_humidity;BME280_pressure;Samples;Min_cycle;Max_cycle;Signal;HPM_P1;HPM_P2
2021/01/30 00:01:57;;;;;;;16.98;11.48;;;21.30;48.90;;;;;;5031163;28;20560;-64
2021/01/30 00:04:22;;;;;;;15.80;11.45;;;21.30;48.90;;;;;;5028573;28;20034;-63
2021/01/30 00:06:57;;;;;;;16.80;12.05;;;21.30;48.90;;;;;;5025533;28;20088;-63
2021/01/30 00:09:25;;;;;;;16.30;11.27;;;21.30;48.90;;;;;;5026186;28;20033;-63
2021/01/30 00:11:58;;;;;;;17.55;11.50;;;21.30;48.80;;;;;;5015222;28;20033;-62
2021/01/30 00:14:26;;;;;;;16.63;11.45;;;21.30;48.80;;;;;;5025564;28;20025;-63
2021/01/30 00:16:52;;;;;;;17.20;11.48;;;21.30;48.80;;;;;;5023790;28;20037;-63
2021/01/30 00:19:18;;;;;;;16.08;10.95;;;21.30;49.30;;;;;;5023191;28;20349;-64
2021/01/30 00:21:52;;;;;;;15.45;11.40;;;21.30;48.70;;;;;;5027424;28;20060;-62
2021/01/30 00:24:19;;;;;;;13.57;10.32;;;21.30;48.70;;;;;;5024772;28;20029;-63
2021/01/30 00:26:52;;;;;;;16.73;11.18;;;21.30;48.70;;;;;;5028430;28;20026;-63
2021/01/30 00:29:23;;;;;;;16.05;10.85;;;21.20;48.70;;;;;;5028255;28;20427;-63
2021/01/30 00:31:49;;;;;;;16.63;11.45;;;21.30;48.70;;;;;;5059626;28;20022;-62
2021/01/30 00:34:17;;;;;;;15.70;10.82;;;21.30;48.70;;;;;;5024175;28;20034;-62
2021/01/30 00:36:43;;;;;;;16.20;11.02;;;21.30;48.70;;;;;;5022522;28;20028;-63
2021/01/30 00:39:09;;;;;;;13.75;10.35;;;21.20;48.60;;;;;;5059263;28;20013;-63
2021/01/30 00:41:35;;;;;;;15.20;10.90;;;21.20;48.60;;;;;;5028156;28;20048;-63
2021/01/30 00:44:01;;;;;;;15.63;10.15;;;21.20;48.60;;;;;;5023902;28;20033;-62
2021/01/30 00:46:27;;;;;;;14.95;10.18;;;21.20;48.60;;;;;;5027557;28;20385;-64
2021/01/30 00:48:53;;;;;;;15.48;10.02;;;21.20;48.60;;;;;;5027444;28;20355;-62
2021/01/30 00:51:20;;;;;;;13.95;9.50;;;21.20;48.60;;;;;;5023351;28;20026;-62
2021/01/30 00:53:46;;;;;;;13.38;9.70;;;21.20;48.60;;;;;;5026064;28;20033;-64
2021/01/30 00:56:13;;;;;;;14.10;9.77;;;21.20;48.60;;;;;;5025686;28;20029;-63
2021/01/30 00:58:40;;;;;;;13.25;9.77;;;21.20;48.60;;;;;;5027331;28;20100;-63
2021/01/30 01:01:06;;;;;;;13.10;9.48;;;21.20;48.60;;;;;;5026860;28;20037;-63
2021/01/30 01:03:32;;;;;;;12.77;9.02;;;21.20;48.60;;;;;;5027785;28;20033;-62
2021/01/30 01:05:59;;;;;;;14.27;9.60;;;21.20;48.60;;;;;;5023727;28;20315;-63
2021/01/30 01:08:24;;;;;;;13.32;9.52;;;21.20;48.50;;;;;;5026167;28;20029;-63
2021/01/30 01:10:50;;;;;;;12.77;9.30;;;21.10;48.50;;;;;;5027380;28;20025;-63
2021/01/30 01:13:16;;;;;;;13.07;9.10;;;21.10;48.50;;;;;;5026946;28;20088;-62
2021/01/30 01:15:42;;;;;;;13.32;9.05;;;21.20;48.50;;;;;;5027383;28;20471;-64
2021/01/30 01:18:07;;;;;;;14.00;9.45;;;21.10;48.50;;;;;;5027121;28;20099;-63
2021/01/30 01:20:33;;;;;;;13.00;9.02;;;21.10;48.50;;;;;;5025150;28;20025;-63
2021/01/30 01:22:59;;;;;;;11.88;8.55;;;21.10;48.50;;;;;;5025667;28;20030;-64
2021/01/30 01:25:24;;;;;;;12.10;8.13;;;21.10;48.50;;;;;;5025333;28;20036;-63
2021/01/30 01:27:51;;;;;;;11.50;8.80;;;21.10;48.50;;;;;;5024524;28;20154;-63
2021/01/30 01:30:19;;;;;;;11.73;8.50;;;21.10;48.50;;;;;;5042226;28;20083;-64
2021/01/30 01:32:44;;;;;;;12.65;8.40;;;21.10;48.50;;;;;;5027111;28;20029;-63
2021/01/30 01:35:15;;;;;;;12.90;8.43;;;21.00;48.50;;;;;;5042110;28;20458;-63
2021/01/30 01:37:42;;;;;;;11.88;8.25;;;21.10;48.50;;;;;;5025555;28;20083;-63
2021/01/30 01:40:08;;;;;;;11.70;7.80;;;21.10;48.50;;;;;;5020086;28;20473;-64
2021/01/30 01:42:33;;;;;;;12.75;8.43;;;21.10;48.50;;;;;;5027109;28;20029;-63
2021/01/30 01:44:59;;;;;;;11.30;8.18;;;21.00;48.50;;;;;;5040310;28;20533;-63
2021/01/30 01:47:37;;;;;;;11.20;8.60;;;21.00;48.50;;;;;;5058319;28;20512;-62
2021/01/30 01:50:06;;;;;;;10.82;7.50;;;21.00;48.50;;;;;;5028198;28;20029;-62
2021/01/30 01:52:39;;;;;;;11.75;7.85;;;21.00;48.50;;;;;;5024708;28;20041;-63
2021/01/30 01:55:06;;;;;;;12.70;8.60;;;21.00;48.50;;;;;;5027221;28;20475;-64
2021/01/30 01:57:34;;;;;;;10.27;7.45;;;21.00;48.50;;;;;;5026580;28;20076;-63
2021/01/30 02:00:00;;;;;;;10.88;7.97;;;21.00;48.50;;;;;;5027910;28;20032;-63
2021/01/30 02:02:29;;;;;;;9.68;7.30;;;21.00;48.50;;;;;;5026976;28;20389;-63
2021/01/30 02:05:17;;;;;;;11.20;7.53;;;21.00;48.50;;;;;;5057305;28;20109;-63
2021/01/30 02:07:45;;;;;;;10.43;7.22;;;21.00;48.50;;;;;;5023950;28;20113;-63
2021/01/30 02:10:13;;;;;;;11.30;7.40;;;20.90;48.50;;;;;;5027404;28;20037;-63
2021/01/30 02:12:40;;;;;;;11.07;7.28;;;20.90;48.50;;;;;;5023405;28;20460;-62
2021/01/30 02:15:07;;;;;;;11.32;7.78;;;20.90;48.50;;;;;;5022551;28;20030;-62
2021/01/30 02:17:57;;;;;;;10.02;7.40;;;20.90;48.50;;;;;;5024473;28;20025;-62
2021/01/30 02:20:41;;;;;;;10.05;6.90;;;20.90;48.50;;;;;;5027036;28;20021;-62
2021/01/30 02:23:38;;;;;;;10.05;6.85;;;20.90;48.50;;;;;;5025640;28;20033;-63
2021/01/30 02:26:47;;;;;;;10.13;7.22;;;20.90;48.50;;;;;;5024940;28;20542;-62
2021/01/30 02:29:29;;;;;;;10.13;7.00;;;20.90;48.50;;;;;;5056535;28;20025;-62
2021/01/30 02:32:25;;;;;;;10.02;6.97;;;20.90;48.50;;;;;;5025600;28;20627;-63
2021/01/30 02:35:23;;;;;;;9.45;6.70;;;20.90;48.50;;;;;;5026660;28;20022;-63
2021/01/30 02:38:04;;;;;;;10.93;7.00;;;20.80;48.50;;;;;;5053933;28;20733;-63
2021/01/30 02:40:37;;;;;;;9.38;6.95;;;20.80;48.50;;;;;;5023197;28;20025;-64
2021/01/30 02:43:10;;;;;;;8.27;6.07;;;20.80;48.50;;;;;;5027167;28;20045;-63
2021/01/30 02:45:43;;;;;;;8.23;6.18;;;20.80;48.50;;;;;;5022801;28;20044;-62
2021/01/30 02:48:14;;;;;;;9.32;6.82;;;20.80;48.50;;;;;;5026258;28;20536;-62
2021/01/30 02:50:46;;;;;;;9.27;6.45;;;20.80;48.50;;;;;;5026137;28;20411;-63
2021/01/30 02:53:32;;;;;;;9.20;7.05;;;20.80;48.50;;;;;;5025847;28;20033;-63
2021/01/30 02:56:00;;;;;;;8.80;6.18;;;20.80;48.60;;;;;;5025714;28;20026;-63
2021/01/30 02:59:08;;;;;;;9.15;6.50;;;20.80;48.60;;;;;;5024831;28;20045;-63
2021/01/30 03:01:37;;;;;;;8.70;6.47;;;20.80;48.50;;;;;;5030652;28;20033;-63
2021/01/30 03:04:17;;;;;;;9.00;6.50;;;20.70;48.50;;;;;;5025709;28;20280;-63
2021/01/30 03:07:01;;;;;;;9.27;6.20;;;20.80;48.50;;;;;;5025411;28;20108;-62
2021/01/30 03:09:39;;;;;;;7.97;5.45;;;20.70;48.50;;;;;;5025948;28;20049;-64
2021/01/30 03:12:29;;;;;;;8.30;5.63;;;20.80;48.60;;;;;;5058149;28;20391;-62
2021/01/30 03:15:05;;;;;;;7.80;5.50;;;20.70;48.50;;;;;;5041500;28;20470;-62
2021/01/30 03:17:32;;;;;;;7.07;5.55;;;20.70;48.50;;;;;;5026189;28;20030;-63
2021/01/30 03:19:59;;;;;;;8.68;5.57;;;20.70;48.50;;;;;;5024988;28;20026;-64
2021/01/30 03:22:27;;;;;;;8.23;6.03;;;20.70;48.50;;;;;;5025673;28;20037;-63
2021/01/30 03:24:54;;;;;;;8.25;5.70;;;20.70;48.50;;;;;;5040356;28;20071;-64
2021/01/30 03:27:28;;;;;;;8.90;6.53;;;20.70;48.50;;;;;;5023140;28;20033;-63
2021/01/30 03:29:55;;;;;;;7.63;5.30;;;20.70;48.50;;;;;;5026697;28;20542;-64
2021/01/30 03:32:20;;;;;;;7.30;5.50;;;20.70;48.60;;;;;;5029508;28;20037;-63
2021/01/30 03:34:49;;;;;;;9.27;6.28;;;20.70;48.50;;;;;;5030025;28;20076;-62
2021/01/30 03:37:15;;;;;;;7.80;5.78;;;20.70;48.50;;;;;;5028311;28;20034;-63
2021/01/30 03:39:41;;;;;;;7.63;5.30;;;20.70;48.50;;;;;;5030052;28;20032;-62
2021/01/30 03:42:07;;;;;;;8.68;5.93;;;20.70;48.60;;;;;;5028524;28;20033;-63
2021/01/30 03:44:33;;;;;;;8.25;5.78;;;20.70;48.60;;;;;;5027814;28;20034;-63
2021/01/30 03:46:58;;;;;;;8.27;5.47;;;20.70;48.60;;;;;;5029870;28;20373;-64
2021/01/30 03:49:24;;;;;;;8.43;6.05;;;20.70;48.60;;;;;;5029217;28;20037;-62
2021/01/30 03:51:50;;;;;;;7.82;5.50;;;20.70;48.60;;;;;;5029286;28;20109;-63
2021/01/30 03:54:15;;;;;;;7.80;5.65;;;20.70;48.60;;;;;;5023741;28;20475;-63
2021/01/30 03:56:43;;;;;;;8.27;5.43;;;20.60;48.50;;;;;;5026984;28;20060;-63
2021/01/30 03:59:09;;;;;;;6.65;5.13;;;20.60;48.50;;;;;;5022934;28;20113;-63
2021/01/30 04:01:35;;;;;;;8.27;5.43;;;20.70;48.60;;;;;;5024127;28;20465;-63
2021/01/30 04:04:00;;;;;;;7.40;5.38;;;20.60;48.50;;;;;;5028821;28;20037;-63
2021/01/30 04:06:26;;;;;;;7.25;5.25;;;20.60;48.50;;;;;;5053235;28;20100;-63
2021/01/30 04:08:52;;;;;;;8.30;5.57;;;20.60;48.50;;;;;;5007602;28;20384;-63
2021/01/30 04:11:24;;;;;;;8.13;4.90;;;20.60;48.50;;;;;;5025758;28;20033;-63
2021/01/30 04:13:49;;;;;;;7.65;5.25;;;20.60;48.60;;;;;;5043607;28;20112;-62
2021/01/30 04:16:15;;;;;;;6.82;4.85;;;20.60;48.50;;;;;;5021558;28;20118;-64
2021/01/30 04:18:40;;;;;;;7.63;5.03;;;20.60;48.50;;;;;;5018630;28;20022;-64
2021/01/30 04:21:06;;;;;;;7.05;5.40;;;20.60;48.60;;;;;;5027105;28;20542;-62
2021/01/30 04:23:31;;;;;;;7.22;5.22;;;20.60;48.50;;;;;;5026653;28;20033;-62
2021/01/30 04:25:57;;;;;;;7.15;5.00;;;20.60;48.50;;;;;;5060416;28;20116;-63
2021/01/30 04:28:23;;;;;;;7.75;5.68;;;20.60;48.60;;;;;;5029552;28;20025;-63
2021/01/30 04:30:48;;;;;;;7.78;5.50;;;20.60;48.60;;;;;;5023888;28;20117;-63
2021/01/30 04:33:14;;;;;;;8.85;5.07;;;20.60;48.60;;;;;;5058452;28;20044;-63
2021/01/30 04:35:39;;;;;;;7.18;5.18;;;20.60;48.60;;;;;;5027894;28;20372;-64
2021/01/30 04:38:05;;;;;;;7.65;5.15;;;20.60;48.50;;;;;;5027496;28;20104;-63
2021/01/30 04:40:38;;;;;;;6.72;5.00;;;20.60;48.50;;;;;;5027057;28;20092;-62
2021/01/30 04:43:19;;;;;;;7.53;5.35;;;20.60;48.50;;;;;;5024350;28;20064;-64
2021/01/30 04:45:52;;;;;;;6.85;5.05;;;20.60;48.60;;;;;;5024957;28;20037;-63
2021/01/30 04:48:17;;;;;;;7.60;5.07;;;20.50;48.50;;;;;;5007590;28;20038;-64
2021/01/30 04:51:04;;;;;;;7.07;5.03;;;20.60;48.50;;;;;;5021825;28;20037;-63
2021/01/30 04:54:13;;;;;;;6.75;4.88;;;20.50;48.50;;;;;;5025736;28;20033;-63
2021/01/30 04:56:53;;;;;;;6.20;4.45;;;20.60;48.60;;;;;;5027833;28;20021;-62
2021/01/30 04:59:37;;;;;;;6.60;4.40;;;20.50;48.50;;;;;;5028011;28;20033;-63
2021/01/30 05:02:32;;;;;;;7.00;4.93;;;20.50;48.50;;;;;;5028241;28;20045;-63
2021/01/30 05:04:59;;;;;;;7.78;5.00;;;20.50;48.60;;;;;;5026117;28;20048;-64
2021/01/30 05:07:46;;;;;;;6.72;4.53;;;20.50;48.60;;;;;;5026031;28;20460;-63
2021/01/30 05:10:31;;;;;;;6.35;4.47;;;20.50;48.60;;;;;;5027306;28;20034;-63
2021/01/30 05:13:17;;;;;;;6.65;4.45;;;20.50;48.60;;;;;;5028243;28;20813;-63
2021/01/30 05:15:59;;;;;;;7.75;4.20;;;20.50;48.60;;;;;;5028120;28;20127;-63
2021/01/30 05:18:29;;;;;;;7.03;4.72;;;20.50;48.60;;;;;;5028557;28;20028;-64
2021/01/30 05:21:16;;;;;;;5.95;4.25;;;20.50;48.70;;;;;;5026311;28;20028;-62
2021/01/30 05:23:47;;;;;;;6.97;4.35;;;20.50;48.70;;;;;;5027552;28;20044;-63
2021/01/30 05:26:21;;;;;;;7.13;4.50;;;20.50;48.70;;;;;;5022929;28;20046;-64
2021/01/30 05:28:56;;;;;;;5.55;3.88;;;20.50;48.70;;;;;;5027517;28;20507;-63
2021/01/30 05:31:46;;;;;;;6.20;4.13;;;20.40;48.70;;;;;;5026862;28;20088;-62
2021/01/30 05:34:15;;;;;;;5.82;3.80;;;20.50;48.80;;;;;;5027058;28;20484;-63
2021/01/30 05:36:52;;;;;;;5.75;4.40;;;20.40;48.70;;;;;;5014431;28;20036;-62
2021/01/30 05:39:25;;;;;;;5.47;3.92;;;20.40;48.70;;;;;;5018080;28;20408;-63
2021/01/30 05:41:58;;;;;;;5.25;3.63;;;20.40;48.70;;;;;;5043715;28;20022;-63
2021/01/30 05:44:32;;;;;;;6.53;4.28;;;20.40;48.70;;;;;;5056998;28;20459;-63
2021/01/30 05:46:58;;;;;;;6.25;4.10;;;20.40;48.70;;;;;;5029076;28;20033;-62
2021/01/30 05:49:29;;;;;;;5.32;3.53;;;20.40;48.70;;;;;;5026806;28;20025;-62
2021/01/30 05:52:02;;;;;;;5.88;4.03;;;20.40;48.80;;;;;;5026308;28;20117;-63
2021/01/30 05:54:28;;;;;;;5.75;3.97;;;20.40;48.80;;;;;;5026375;28;20060;-63
2021/01/30 05:56:54;;;;;;;6.47;3.80;;;20.40;48.80;;;;;;5020524;28;20053;-63
2021/01/30 05:59:30;;;;;;;5.40;3.55;;;20.40;48.80;;;;;;5023798;28;20119;-62
2021/01/30 06:02:11;;;;;;;5.97;3.90;;;20.40;48.80;;;;;;5027475;28;20041;-62
2021/01/30 06:04:37;;;;;;;6.22;3.95;;;20.40;48.80;;;;;;5023812;28;20512;-63
2021/01/30 06:07:03;;;;;;;6.50;3.97;;;20.40;48.80;;;;;;5022255;28;20104;-63
2021/01/30 06:09:38;;;;;;;5.82;3.90;;;20.40;48.90;;;;;;5021024;28;20522;-62
2021/01/30 06:12:22;;;;;;;6.15;3.72;;;20.40;48.90;;;;;;5023042;28;20031;-63
2021/01/30 06:14:48;;;;;;;5.57;3.78;;;20.40;48.90;;;;;;5023792;28;20034;-62
2021/01/30 06:17:32;;;;;;;5.70;3.83;;;20.50;49.00;;;;;;5022419;28;20113;-64
2021/01/30 06:20:20;;;;;;;5.32;3.47;;;20.50;49.00;;;;;;5024339;28;20029;-63
2021/01/30 06:23:06;;;;;;;5.32;3.33;;;20.60;49.10;;;;;;5022699;28;20102;-64
2021/01/30 06:25:41;;;;;;;5.03;3.20;;;20.60;49.00;;;;;;5023953;28;20068;-64
2021/01/30 06:28:25;;;;;;;5.55;3.28;;;20.60;49.00;;;;;;5024426;28;20036;-64
2021/01/30 06:30:52;;;;;;;4.60;3.15;;;20.70;49.10;;;;;;5017606;28;20304;-64
2021/01/30 06:33:30;;;;;;;4.85;3.47;;;20.70;49.00;;;;;;5005634;28;20037;-63
2021/01/30 06:36:08;;;;;;;5.13;3.35;;;20.70;49.00;;;;;;5022983;28;20109;-63
2021/01/30 06:38:40;;;;;;;4.75;3.10;;;20.70;49.10;;;;;;5021468;28;20124;-62
2021/01/30 06:41:18;;;;;;;4.97;2.97;;;20.70;49.00;;;;;;5023662;28;20033;-63
2021/01/30 06:43:46;;;;;;;4.95;3.15;;;20.80;49.10;;;;;;5017109;28;20029;-63
2021/01/30 06:46:17;;;;;;;4.53;2.67;;;20.80;49.00;;;;;;5020665;28;20071;-64
2021/01/30 06:48:53;;;;;;;4.88;3.40;;;20.80;49.00;;;;;;5020458;28;20176;-63
2021/01/30 06:51:30;;;;;;;4.53;3.10;;;20.80;49.10;;;;;;5023471;28;20025;-62
2021/01/30 06:54:16;;;;;;;4.97;3.17;;;20.80;49.10;;;;;;5047508;28;20629;-64
2021/01/30 06:56:43;;;;;;;4.38;2.92;;;20.80;49.10;;;;;;5023667;28;20044;-64
2021/01/30 06:59:22;;;;;;;5.47;3.28;;;20.80;49.10;;;;;;5023043;28;20030;-62
2021/01/30 07:01:48;;;;;;;4.03;2.55;;;20.80;49.20;;;;;;5057405;28;20159;-63
2021/01/30 07:04:47;;;;;;;4.90;2.80;;;20.80;49.20;;;;;;5026538;28;20048;-63
2021/01/30 07:07:27;;;;;;;4.85;2.50;;;20.80;49.20;;;;;;5028400;28;20037;-64
2021/01/30 07:10:15;;;;;;;4.85;2.72;;;20.80;49.20;;;;;;5028296;28;20108;-62
2021/01/30 07:12:47;;;;;;;5.15;2.90;;;20.80;49.10;;;;;;5062426;28;20041;-63
2021/01/30 07:15:22;;;;;;;4.93;3.03;;;20.70;49.10;;;;;;5030271;28;20041;-62
2021/01/30 07:17:59;;;;;;;3.78;2.45;;;20.70;49.10;;;;;;5051676;28;20172;-63
2021/01/30 07:20:33;;;;;;;4.25;2.67;;;20.70;49.10;;;;;;5026554;28;20033;-62
2021/01/30 07:23:09;;;;;;;5.10;3.17;;;20.70;49.10;;;;;;5029282;28;20026;-62
2021/01/30 07:25:51;;;;;;;4.57;2.75;;;20.70;49.60;;;;;;5028892;28;20406;-63
2021/01/30 07:28:30;;;;;;;4.65;2.92;;;20.70;49.10;;;;;;5027134;28;20096;-62
2021/01/30 07:31:15;;;;;;;3.95;2.40;;;20.70;49.10;;;;;;5032081;28;20117;-63
2021/01/30 07:33:52;;;;;;;4.43;2.75;;;20.70;49.10;;;;;;5030478;28;20025;-64
2021/01/30 07:36:24;;;;;;;4.57;2.60;;;20.70;49.10;;;;;;5027670;28;20483;-63
2021/01/30 07:39:22;;;;;;;4.20;2.70;;;20.70;49.10;;;;;;5029315;28;20036;-62
2021/01/30 07:41:59;;;;;;;3.70;2.70;;;20.70;49.10;;;;;;5030227;28;20033;-63
2021/01/30 07:44:33;;;;;;;4.40;2.55;;;20.70;49.10;;;;;;5016489;28;20551;-62
2021/01/30 07:47:08;;;;;;;4.00;2.50;;;20.70;49.10;;;;;;5026814;28;20026;-64
2021/01/30 07:49:36;;;;;;;4.30;2.65;;;20.70;49.10;;;;;;5027557;28;20040;-62
2021/01/30 07:52:08;;;;;;;3.83;2.47;;;20.70;49.10;;;;;;5027678;28;20068;-62
2021/01/30 07:54:44;;;;;;;5.05;2.80;;;20.70;49.10;;;;;;5028978;28;20551;-62
2021/01/30 07:57:35;;;;;;;3.67;2.50;;;20.70;49.10;;;;;;5035598;28;20030;-62
2021/01/30 08:00:16;;;;;;;4.75;2.55;;;20.70;49.00;;;;;;5029824;28;20036;-64
2021/01/30 08:03:14;;;;;;;3.95;2.55;;;20.70;49.10;;;;;;5024916;28;20099;-63
2021/01/30 08:06:24;;;;;;;4.07;2.53;;;20.60;49.00;;;;;;5030816;28;20117;-62
2021/01/30 08:09:08;;;;;;;3.75;2.30;;;20.60;49.00;;;;;;5027624;28;20085;-62
2021/01/30 08:11:40;;;;;;;3.88;2.38;;;20.60;49.00;;;;;;5012090;28;20026;-62
2021/01/30 08:14:36;;;;;;;3.83;2.60;;;20.60;49.00;;;;;;5025258;28;20037;-63
2021/01/30 08:17:28;;;;;;;4.00;2.30;;;20.60;49.00;;;;;;5018309;28;20067;-63
2021/01/30 08:20:02;;;;;;;3.42;2.47;;;20.60;49.00;;;;;;4998802;28;20606;-62
2021/01/30 08:23:11;;;;;;;4.07;2.30;;;20.60;49.00;;;;;;5042096;28;20515;-63
2021/01/30 08:26:02;;;;;;;3.67;2.28;;;20.60;49.00;;;;;;5021270;28;20041;-64
2021/01/30 08:28:36;;;;;;;3.88;2.25;;;20.60;49.00;;;;;;5027426;28;20056;-63
2021/01/30 08:31:02;;;;;;;3.85;2.40;;;20.60;49.00;;;;;;5022728;28;20077;-62
2021/01/30 08:34:08;;;;;;;3.60;2.22;;;20.60;49.00;;;;;;5027701;28;20191;-62
2021/01/30 08:36:42;;;;;;;3.75;2.45;;;20.60;49.00;;;;;;5026350;28;20067;-62
2021/01/30 08:39:30;;;;;;;3.50;2.30;;;20.60;49.00;;;;;;5027863;28;20060;-62
2021/01/30 08:42:05;;;;;;;3.67;2.17;;;20.60;49.00;;;;;;5028487;28;20052;-63
2021/01/30 08:44:33;;;;;;;3.83;2.30;;;20.60;49.00;;;;;;5027519;28;20737;-62
2021/01/30 08:47:13;;;;;;;3.20;2.10;;;20.60;49.00;;;;;;5027046;28;20102;-63
2021/01/30 08:49:39;;;;;;;3.95;2.45;;;20.60;49.00;;;;;;5023000;28;20084;-62
2021/01/30 08:52:14;;;;;;;3.35;2.15;;;20.50;48.90;;;;;;5033892;28;20360;-62
2021/01/30 08:54:42;;;;;;;3.85;2.13;;;20.50;49.00;;;;;;5026451;28;20053;-62
2021/01/30 08:57:32;;;;;;;3.78;2.33;;;20.50;48.90;;;;;;5025600;28;20035;-62
2021/01/30 08:59:59;;;;;;;3.28;2.10;;;20.60;49.00;;;;;;5025681;28;20431;-63
2021/01/30 09:02:31;;;;;;;3.28;2.10;;;20.50;48.90;;;;;;5025786;28;20103;-63
2021/01/30 09:04:59;;;;;;;4.03;2.35;;;20.50;49.00;;;;;;5025963;28;20398;-62
2021/01/30 09:07:36;;;;;;;3.42;2.22;;;20.50;49.00;;;;;;5025693;28;20717;-63
2021/01/30 09:10:22;;;;;;;3.72;2.35;;;20.50;49.00;;;;;;5022747;28;20041;-62
2021/01/30 09:12:58;;;;;;;3.90;2.30;;;20.50;49.10;;;;;;5008738;28;20539;-63
2021/01/30 09:15:41;;;;;;;3.53;2.08;;;20.50;49.00;;;;;;5023242;28;20060;-63
2021/01/30 09:18:19;;;;;;;3.30;2.08;;;20.60;49.10;;;;;;5020779;28;20125;-63
2021/01/30 09:21:00;;;;;;;3.70;2.22;;;20.60;49.10;;;;;;5016069;28;20033;-62
2021/01/30 09:23:37;;;;;;;3.78;2.40;;;20.70;49.30;;;;;;5022764;28;20025;-62
2021/01/30 09:26:50;;;;;;;3.67;2.17;;;20.70;49.20;;;;;;5024101;28;20104;-63
2021/01/30 09:29:41;;;;;;;3.28;2.10;;;20.80;49.10;;;;;;4993804;28;20115;-62
2021/01/30 09:32:10;;;;;;;3.45;2.00;;;20.80;49.10;;;;;;5018400;28;20042;-63
2021/01/30 09:34:47;;;;;;;3.53;2.40;;;20.80;49.10;;;;;;5022193;28;20108;-63
2021/01/30 09:37:36;;;;;;;3.45;2.00;;;20.90;49.00;;;;;;5025958;28;20669;-62
2021/01/30 09:40:07;;;;;;;3.10;2.00;;;20.90;49.00;;;;;;5021209;28;20382;-62
2021/01/30 09:42:33;;;;;;;3.72;2.17;;;20.90;49.00;;;;;;5016972;28;20447;-62
2021/01/30 09:45:18;;;;;;;3.33;2.00;;;20.90;49.10;;;;;;5026276;28;20061;-62
2021/01/30 09:47:48;;;;;;;2.78;1.77;;;20.90;49.10;;;;;;5025641;28;20025;-64
2021/01/30 09:50:20;;;;;;;3.60;2.10;;;20.80;49.10;;;;;;5022909;28;20057;-62
2021/01/30 09:52:58;;;;;;;2.92;1.75;;;20.80;49.10;;;;;;5019682;28;20037;-64
2021/01/30 09:55:24;;;;;;;3.08;2.00;;;20.80;49.10;;;;;;5025326;28;20029;-62
2021/01/30 09:58:11;;;;;;;3.53;1.92;;;20.80;49.10;;;;;;5023346;28;20023;-63
2021/01/30 10:00:39;;;;;;;2.97;1.90;;;20.80;49.10;;;;;;5024306;28;20026;-62
2021/01/30 10:03:18;;;;;;;3.10;1.80;;;20.80;49.10;;;;;;5026575;28;20490;-64
2021/01/30 10:05:45;;;;;;;3.22;1.98;;;20.80;49.10;;;;;;5020134;28;20060;-61
2021/01/30 10:08:22;;;;;;;3.55;1.83;;;20.80;49.10;;;;;;5017941;28;20496;-63
2021/01/30 10:10:48;;;;;;;2.60;1.80;;;20.80;49.10;;;;;;5025178;28;20051;-63
2021/01/30 10:13:17;;;;;;;3.10;1.90;;;20.80;49.10;;;;;;5022337;28;20030;-62
2021/01/30 10:15:50;;;;;;;3.10;1.88;;;20.80;49.10;;;;;;5040559;28;20037;-62
2021/01/30 10:18:19;;;;;;;3.10;1.95;;;20.80;49.10;;;;;;5026564;28;20041;-63
2021/01/30 10:21:01;;;;;;;2.60;1.70;;;20.80;49.10;;;;;;5024597;28;20463;-63
2021/01/30 10:23:45;;;;;;;3.30;2.10;;;20.80;49.10;;;;;;5025302;28;20088;-63
2021/01/30 10:26:23;;;;;;;3.17;1.90;;;20.70;49.00;;;;;;5022641;28;20306;-62
2021/01/30 10:28:58;;;;;;;2.70;1.73;;;20.80;49.10;;;;;;5023853;28;20266;-63
2021/01/30 10:31:30;;;;;;;2.75;1.65;;;20.80;49.10;;;;;;5022826;28;20041;-63
2021/01/30 10:34:16;;;;;;;2.60;1.70;;;20.80;49.10;;;;;;5025989;28;20036;-62
2021/01/30 10:36:56;;;;;;;3.45;1.90;;;20.80;49.10;;;;;;5022934;28;20064;-63
2021/01/30 10:39:23;;;;;;;2.97;1.58;;;20.80;49.10;;;;;;5025593;28;20108;-62
2021/01/30 10:41:50;;;;;;;3.20;1.90;;;20.80;49.00;;;;;;5024249;28;20759;-63
2021/01/30 10:44:24;;;;;;;2.70;1.52;;;20.70;49.00;;;;;;5019018;28;20033;-62
2021/01/30 10:46:55;;;;;;;3.08;1.77;;;20.70;49.00;;;;;;5024866;28;20623;-63
2021/01/30 10:49:34;;;;;;;3.10;1.80;;;20.70;49.00;;;;;;5018349;28;20041;-63
2021/01/30 10:52:22;;;;;;;3.17;1.80;;;20.70;49.00;;;;;;5015856;28;20034;-62
2021/01/30 10:54:48;;;;;;;2.55;1.60;;;20.70;49.00;;;;;;5020460;28;20052;-62
2021/01/30 10:57:16;;;;;;;2.58;1.60;;;20.80;49.10;;;;;;5022826;28;20164;-61
2021/01/30 10:59:57;;;;;;;2.53;1.60;;;20.70;49.00;;;;;;5021324;28;20041;-64
2021/01/30 11:02:36;;;;;;;3.67;1.60;;;20.70;49.00;;;;;;5022110;28;20060;-62
2021/01/30 11:05:25;;;;;;;3.60;1.70;;;20.70;49.00;;;;;;5023558;28;20333;-62
2021/01/30 11:08:01;;;;;;;2.22;1.50;;;20.70;49.00;;;;;;5023298;28;20408;-62
2021/01/30 11:10:42;;;;;;;2.80;1.70;;;20.70;49.00;;;;;;5025012;28;20348;-62
2021/01/30 11:13:15;;;;;;;2.75;1.63;;;20.70;49.00;;;;;;5029912;28;20035;-62
2021/01/30 11:15:43;;;;;;;3.28;1.63;;;20.80;49.00;;;;;;5021591;28;20017;-61
2021/01/30 11:18:41;;;;;;;2.88;1.70;;;20.70;49.00;;;;;;5017393;28;20041;-62
2021/01/30 11:21:11;;;;;;;2.40;1.40;;;20.70;49.00;;;;;;5020163;28;20091;-62
2021/01/30 11:23:36;;;;;;;2.97;1.65;;;20.70;49.00;;;;;;5023755;28;20148;-62
2021/01/30 11:26:19;;;;;;;2.95;1.90;;;20.70;49.00;;;;;;5024949;28;20116;-64
2021/01/30 11:28:45;;;;;;;2.80;1.80;;;20.70;49.00;;;;;;5052869;28;20030;-63
2021/01/30 11:31:13;;;;;;;2.60;1.63;;;20.70;49.00;;;;;;5019786;28;20038;-62
2021/01/30 11:33:39;;;;;;;3.15;1.70;;;20.70;49.00;;;;;;5023085;28;20033;-62
2021/01/30 11:36:09;;;;;;;2.95;1.52;;;20.70;49.00;;;;;;5020328;28;20029;-62
2021/01/30 11:38:34;;;;;;;3.10;1.90;;;20.70;49.00;;;;;;5019377;28;20025;-62
2021/01/30 11:41:00;;;;;;;3.00;1.70;;;20.70;49.00;;;;;;5023107;28;20033;-61
2021/01/30 11:43:27;;;;;;;2.83;1.73;;;20.70;49.00;;;;;;5008115;28;20061;-62
2021/01/30 11:45:53;;;;;;;3.22;1.80;;;20.70;49.50;;;;;;5024591;28;20044;-62
2021/01/30 11:48:20;;;;;;;2.65;1.55;;;20.70;49.00;;;;;;5023256;28;20029;-62
2021/01/30 11:50:47;;;;;;;2.85;1.75;;;20.70;49.00;;;;;;5025258;28;20030;-62
2021/01/30 11:53:18;;;;;;;2.28;1.50;;;20.70;49.00;;;;;;5018823;28;20167;-62
2021/01/30 11:55:44;;;;;;;2.72;1.55;;;20.70;49.00;;;;;;5025222;28;20061;-62
2021/01/30 11:58:11;;;;;;;2.22;1.63;;;20.70;49.00;;;;;;5024424;28;20545;-62
2021/01/30 12:00:37;;;;;;;3.28;1.90;;;20.70;49.00;;;;;;5040442;28;20707;-62
2021/01/30 12:03:03;;;;;;;3.00;1.90;;;20.70;49.00;;;;;;5028243;28;20030;-62
2021/01/30 12:05:30;;;;;;;2.40;1.65;;;20.70;48.90;;;;;;5021117;28;20061;-62
2021/01/30 12:07:57;;;;;;;2.35;1.42;;;20.70;49.00;;;;;;5025103;28;20022;-61
2021/01/30 12:10:24;;;;;;;3.08;1.73;;;20.70;48.90;;;;;;5054893;28;20080;-62
2021/01/30 12:12:50;;;;;;;2.17;1.40;;;20.70;48.90;;;;;;5019446;28;20060;-62
2021/01/30 12:15:16;;;;;;;2.75;1.60;;;20.70;48.90;;;;;;5028692;28;20056;-63
2021/01/30 12:17:42;;;;;;;2.40;1.42;;;20.70;49.50;;;;;;5055896;28;20041;-62
2021/01/30 12:20:19;;;;;;;2.58;1.58;;;20.70;48.90;;;;;;5028139;28;20495;-62
2021/01/30 12:22:45;;;;;;;2.08;1.23;;;20.70;48.90;;;;;;5021998;28;20037;-64
2021/01/30 12:25:11;;;;;;;2.53;1.52;;;20.70;48.90;;;;;;5056137;28;20058;-62
2021/01/30 12:27:40;;;;;;;2.97;1.60;;;20.70;48.90;;;;;;5026120;28;20044;-62
2021/01/30 12:30:06;;;;;;;2.70;1.52;;;20.70;48.90;;;;;;5024006;28;20471;-63
2021/01/30 12:32:31;;;;;;;2.92;1.77;;;20.70;48.90;;;;;;5040616;28;20037;-63
2021/01/30 12:34:57;;;;;;;2.33;1.48;;;20.70;48.90;;;;;;5026260;28;20025;-62
2021/01/30 12:37:23;;;;;;;2.25;1.40;;;20.70;48.90;;;;;;5032694;28;20037;-62
2021/01/30 12:39:49;;;;;;;2.33;1.63;;;20.70;48.90;;;;;;5025261;28;20037;-63
2021/01/30 12:42:14;;;;;;;2.58;1.63;;;20.70;48.90;;;;;;5019748;28;20418;-64
2021/01/30 12:44:40;;;;;;;3.10;1.60;;;20.70;48.90;;;;;;5024143;28;20648;-63
2021/01/30 12:47:06;;;;;;;3.58;1.73;;;20.70;48.90;;;;;;5024716;28;20069;-63
2021/01/30 12:49:31;;;;;;;2.63;1.50;;;20.70;49.00;;;;;;5021605;28;20112;-63
2021/01/30 12:51:57;;;;;;;2.65;1.50;;;20.80;49.00;;;;;;5021072;28;20176;-63
2021/01/30 12:54:23;;;;;;;2.95;1.50;;;20.80;49.00;;;;;;5021516;28;20060;-63
2021/01/30 12:56:49;;;;;;;2.70;1.20;;;20.90;48.90;;;;;;5023047;28;20153;-62
2021/01/30 12:59:14;;;;;;;2.42;1.50;;;20.90;48.80;;;;;;5023821;28;20022;-62
2021/01/30 13:01:40;;;;;;;2.72;1.42;;;20.90;48.80;;;;;;5021365;28;20060;-62
2021/01/30 13:04:06;;;;;;;2.13;1.30;;;21.00;48.70;;;;;;5023966;28;20044;-62
2021/01/30 13:06:33;;;;;;;3.05;1.25;;;21.00;48.70;;;;;;5020182;28;20087;-62
2021/01/30 13:08:59;;;;;;;2.38;1.30;;;21.00;48.80;;;;;;5021363;28;20358;-63
2021/01/30 13:11:24;;;;;;;2.45;1.30;;;21.00;48.80;;;;;;5018401;28;20108;-63
2021/01/30 13:13:50;;;;;;;4.20;1.38;;;20.90;48.80;;;;;;5054605;28;20072;-62
2021/01/30 13:16:16;;;;;;;2.53;1.13;;;20.90;48.80;;;;;;5022709;28;20124;-62